Time;durP1;ratioP1;P1;durP2;ratioP2;P2;SDS_P1;SDS_P2;PMS_P1;PMS_P2;Temp;Humidity;BMP_temperature;BMP_pressure;BME280_temperature;BME280_humidity;BME280_pressure;Samples;Min_cycle;Max_cycle;Signal;HPM_P1;HPM_P2
2022/08/28 00:01:48;;;;;;;29.10;5.15;;;13.10;99.90;;;;;;5073648;28;20471;-69
2022/08/28 00:04:14;;;;;;;27.52;5.25;;;13.10;99.90;;;;;;5073377;28;20052;-69
2022/08/28 00:06:39;;;;;;;39.17;6.53;;;13.10;99.90;;;;;;5073488;28;20384;-69
2022/08/28 00:09:06;;;;;;;40.50;6.10;;;13.00;99.90;;;;;;5073736;28;20132;-69
2022/08/28 00:11:36;;;;;;;25.83;4.85;;;13.00;99.90;;;;;;5073599;28;20044;-69
2022/08/28 00:14:04;;;;;;;39.72;6.18;;;13.00;99.90;;;;;;5073347;28;20610;-69
2022/08/28 00:16:30;;;;;;;24.27;4.70;;;13.00;99.90;;;;;;5073679;28;20031;-69
2022/08/28 00:18:56;;;;;;;31.30;5.70;;;12.90;99.90;;;;;;5073179;28;20025;-69
2022/08/28 00:21:22;;;;;;;28.15;6.95;;;12.90;99.90;;;;;;5073374;28;20024;-69
2022/08/28 00:23:47;;;;;;;41.67;5.95;;;12.80;99.90;;;;;;5073704;28;20362;-69
2022/08/28 00:27:51;;;;;;;33.67;6.93;;;12.70;99.90;;;;;;5073153;28;20059;-69
2022/08/28 00:28:59;;;;;;;27.52;5.93;;;12.60;99.90;;;;;;5073219;28;20107;-69
2022/08/28 00:31:24;;;;;;;40.15;6.32;;;12.50;99.90;;;;;;5073591;28;20052;-69
2022/08/28 00:33:50;;;;;;;29.10;6.00;;;12.50;99.90;;;;;;5073308;28;20021;-69
2022/08/28 00:36:15;;;;;;;21.90;4.88;;;12.40;99.90;;;;;;5073021;28;20028;-69
2022/08/28 00:38:41;;;;;;;25.70;5.22;;;12.40;99.90;;;;;;5073435;28;20439;-69
2022/08/28 00:41:06;;;;;;;41.00;7.10;;;12.30;99.90;;;;;;5073242;28;20030;-69
2022/08/28 00:43:41;;;;;;;29.95;7.15;;;12.30;99.90;;;;;;5073146;28;20021;-69
2022/08/28 00:46:11;;;;;;;29.65;5.63;;;12.30;99.90;;;;;;5072950;28;20054;-69
2022/08/28 00:48:37;;;;;;;22.80;5.40;;;12.20;99.90;;;;;;5073189;28;20039;-69
2022/08/28 00:53:50;;;;;;;20.80;6.05;;;12.10;99.90;;;;;;5073140;28;20108;-69
2022/08/28 00:56:17;;;;;;;29.83;5.40;;;12.10;99.90;;;;;;5073038;28;20040;-69
2022/08/28 00:58:46;;;;;;;26.08;6.50;;;12.00;99.90;;;;;;5072922;28;20107;-69
2022/08/28 01:01:13;;;;;;;35.85;6.18;;;11.90;99.90;;;;;;5073238;28;20077;-69
2022/08/28 01:03:38;;;;;;;22.67;6.28;;;11.90;99.90;;;;;;5073002;28;20470;-69
2022/08/28 01:06:05;;;;;;;30.80;5.95;;;11.80;99.90;;;;;;5073087;28;20040;-69
2022/08/28 01:08:33;;;;;;;41.10;7.00;;;11.80;99.90;;;;;;5072869;28;20017;-69
2022/08/28 01:11:02;;;;;;;34.75;7.07;;;11.70;99.90;;;;;;5072917;28;20129;-69
2022/08/28 01:13:29;;;;;;;35.15;6.55;;;11.70;99.90;;;;;;5072888;28;20052;-69
2022/08/28 01:15:57;;;;;;;22.90;5.68;;;11.70;99.90;;;;;;5074458;28;20059;-68
2022/08/28 01:18:23;;;;;;;25.52;6.00;;;11.70;99.90;;;;;;5076675;28;20473;-68
2022/08/28 01:21:06;;;;;;;24.63;6.32;;;11.70;99.90;;;;;;5076552;28;20024;-68
2022/08/28 01:23:46;;;;;;;25.63;6.20;;;11.60;99.90;;;;;;5076428;28;20052;-68
2022/08/28 01:26:12;;;;;;;11.90;4.80;;;11.50;99.90;;;;;;5076701;28;20536;-68
2022/08/28 01:28:39;;;;;;;18.45;5.00;;;11.40;99.90;;;;;;5076410;28;20052;-68
2022/08/28 01:31:05;;;;;;;32.08;5.65;;;11.20;99.90;;;;;;5076403;28;20017;-68
2022/08/28 01:33:30;;;;;;;24.42;6.30;;;11.20;99.90;;;;;;5076072;28;20495;-68
2022/08/28 01:35:56;;;;;;;35.63;6.90;;;11.20;99.90;;;;;;5076191;28;20430;-68
2022/08/28 01:38:22;;;;;;;32.58;7.22;;;11.10;99.90;;;;;;5076333;28;20051;-68
2022/08/28 01:40:52;;;;;;;30.75;7.15;;;11.10;99.90;;;;;;5076219;28;20472;-68
2022/08/28 01:43:20;;;;;;;22.45;6.25;;;11.10;99.90;;;;;;5076088;28;20050;-68
2022/08/28 01:45:53;;;;;;;26.25;6.38;;;11.00;99.90;;;;;;5076117;28;20025;-68
2022/08/28 01:48:21;;;;;;;27.60;6.97;;;11.00;99.90;;;;;;5076276;28;20029;-68
2022/08/28 01:50:47;;;;;;;26.00;5.28;;;11.10;99.90;;;;;;5075988;28;20033;-68
2022/08/28 01:53:15;;;;;;;24.95;5.38;;;11.00;99.90;;;;;;5076011;28;20031;-67
2022/08/28 01:55:42;;;;;;;14.88;4.45;;;10.90;99.90;;;;;;5112161;22;20033;-69
2022/08/28 01:58:07;;;;;;;17.88;6.22;;;10.90;99.90;;;;;;5076110;28;20033;-69
2022/08/28 02:00:34;;;;;;;25.63;6.32;;;10.70;99.90;;;;;;5076088;28;20021;-69
2022/08/28 02:02:59;;;;;;;21.20;5.20;;;10.70;99.90;;;;;;5076343;28;20033;-69
2022/08/28 02:05:28;;;;;;;13.73;4.40;;;10.50;99.90;;;;;;5075741;28;20407;-69
2022/08/28 02:07:56;;;;;;;16.83;4.82;;;10.40;99.90;;;;;;5055824;28;20021;-69
2022/08/28 02:10:23;;;;;;;20.98;4.30;;;10.30;99.90;;;;;;5055696;28;20017;-69
2022/08/28 02:12:49;;;;;;;22.25;5.25;;;10.20;99.90;;;;;;5055735;28;20054;-69
2022/08/28 02:15:15;;;;;;;19.00;5.38;;;10.10;99.90;;;;;;5055770;28;20494;-70
2022/08/28 02:17:40;;;;;;;25.77;4.90;;;10.20;99.90;;;;;;5055580;28;20060;-69
2022/08/28 02:20:07;;;;;;;14.63;5.00;;;10.20;99.90;;;;;;5055624;28;20022;-69
2022/08/28 02:22:32;;;;;;;22.00;7.65;;;10.10;99.90;;;;;;5055466;28;20044;-69
2022/08/28 02:24:58;;;;;;;16.95;4.90;;;10.10;99.90;;;;;;5055639;28;20472;-69
2022/08/28 02:27:24;;;;;;;20.48;4.68;;;10.10;99.90;;;;;;5054594;28;20036;-70
2022/08/28 02:29:49;;;;;;;11.77;4.18;;;10.00;99.90;;;;;;5055529;28;20396;-69
2022/08/28 02:32:16;;;;;;;22.63;4.32;;;9.90;99.90;;;;;;5054414;28;20115;-69
2022/08/28 02:34:42;;;;;;;22.33;4.57;;;9.90;99.90;;;;;;5055933;28;20389;-69
2022/08/28 02:37:10;;;;;;;16.42;4.85;;;9.80;99.90;;;;;;5055535;28;20033;-70
2022/08/28 02:39:36;;;;;;;24.48;6.18;;;9.80;99.90;;;;;;5055330;28;20024;-70
2022/08/28 02:42:02;;;;;;;14.05;5.03;;;9.70;99.90;;;;;;5055204;28;20025;-70
2022/08/28 02:44:27;;;;;;;24.27;5.90;;;9.80;99.90;;;;;;5055222;28;20409;-69
2022/08/28 02:46:53;;;;;;;17.83;4.10;;;9.80;99.90;;;;;;5055074;28;20021;-69
2022/08/28 02:49:19;;;;;;;11.75;4.22;;;9.80;99.90;;;;;;5055001;28;20017;-70
2022/08/28 02:51:44;;;;;;;15.05;4.00;;;9.80;99.90;;;;;;5055362;28;20028;-70
2022/08/28 02:54:10;;;;;;;18.17;4.78;;;9.70;99.90;;;;;;5054957;28;20036;-70
2022/08/28 02:56:35;;;;;;;15.65;4.45;;;9.70;99.90;;;;;;5054682;28;20397;-70
2022/08/28 02:59:01;;;;;;;19.05;4.18;;;9.60;99.90;;;;;;5054880;28;20027;-70
2022/08/28 03:01:26;;;;;;;16.77;4.22;;;9.50;99.90;;;;;;5054859;28;20074;-70
2022/08/28 03:03:52;;;;;;;17.15;5.15;;;9.50;99.90;;;;;;5054783;28;20032;-70
2022/08/28 03:06:18;;;;;;;15.18;5.70;;;9.50;99.90;;;;;;5054510;28;20094;-70
2022/08/28 03:08:44;;;;;;;13.30;4.45;;;9.40;99.90;;;;;;5054765;28;20420;-70
2022/08/28 03:11:10;;;;;;;15.27;4.47;;;9.30;99.90;;;;;;5054677;28;20031;-70
2022/08/28 03:13:36;;;;;;;15.45;4.07;;;9.30;99.90;;;;;;5054632;28;20031;-70
2022/08/28 03:16:03;;;;;;;15.95;3.97;;;9.20;99.90;;;;;;5054427;28;20033;-70
2022/08/28 03:18:29;;;;;;;10.48;4.60;;;9.20;99.90;;;;;;5054337;28;20017;-69
2022/08/28 03:20:55;;;;;;;11.95;4.05;;;9.20;99.90;;;;;;5054358;28;20020;-69
2022/08/28 03:23:27;;;;;;;12.05;4.18;;;9.10;99.90;;;;;;5054631;28;20021;-70
2022/08/28 03:25:58;;;;;;;12.40;3.88;;;9.10;99.90;;;;;;5052972;28;20092;-70
2022/08/28 03:28:26;;;;;;;14.00;4.30;;;9.10;99.90;;;;;;5054475;28;20082;-70
2022/08/28 03:30:53;;;;;;;13.23;4.35;;;9.00;99.90;;;;;;5054267;28;20029;-70
2022/08/28 03:33:19;;;;;;;9.52;3.70;;;9.00;99.90;;;;;;5054247;28;20032;-71
2022/08/28 03:35:45;;;;;;;18.10;5.78;;;9.00;99.90;;;;;;5054051;28;20028;-70
2022/08/28 03:38:11;;;;;;;15.60;3.70;;;9.00;99.90;;;;;;5054637;28;20032;-70
2022/08/28 03:40:42;;;;;;;12.20;3.55;;;9.00;99.90;;;;;;5053416;28;20055;-70
2022/08/28 03:43:13;;;;;;;10.93;3.63;;;9.00;99.90;;;;;;5054000;28;20380;-69
2022/08/28 03:45:39;;;;;;;14.40;3.97;;;9.00;99.90;;;;;;5054050;28;20040;-69
2022/08/28 03:48:06;;;;;;;14.32;3.97;;;9.00;99.90;;;;;;5053992;28;20023;-69
2022/08/28 03:50:32;;;;;;;18.45;3.85;;;9.00;99.90;;;;;;5053950;28;20029;-69
2022/08/28 03:52:58;;;;;;;12.32;4.28;;;9.00;99.90;;;;;;5054089;28;20017;-70
2022/08/28 03:55:24;;;;;;;18.27;4.95;;;9.00;99.90;;;;;;5053881;28;20032;-69
2022/08/28 03:57:50;;;;;;;19.45;4.78;;;9.00;99.90;;;;;;5053539;28;20052;-69
2022/08/28 04:00:17;;;;;;;17.48;4.63;;;9.00;99.90;;;;;;5053998;28;20051;-70
2022/08/28 04:02:43;;;;;;;21.02;4.95;;;9.00;99.90;;;;;;5053725;28;20032;-69
2022/08/28 04:05:09;;;;;;;19.20;4.65;;;9.10;99.90;;;;;;5053661;28;20025;-70
2022/08/28 04:07:36;;;;;;;12.43;4.97;;;9.10;99.90;;;;;;5053661;28;20380;-69
2022/08/28 04:10:02;;;;;;;9.27;3.80;;;9.20;99.90;;;;;;5053583;28;20043;-69
2022/08/28 04:12:28;;;;;;;16.08;3.83;;;9.20;99.90;;;;;;5053664;28;20029;-69
2022/08/28 04:14:54;;;;;;;20.20;4.50;;;9.10;99.90;;;;;;5053577;28;20104;-69
2022/08/28 04:17:19;;;;;;;12.80;4.00;;;9.00;99.90;;;;;;5053350;28;20054;-70
2022/08/28 04:19:45;;;;;;;18.63;4.35;;;9.00;99.90;;;;;;5053428;28;20028;-69
2022/08/28 04:22:10;;;;;;;14.45;4.35;;;9.00;99.90;;;;;;5053362;28;20068;-70
2022/08/28 04:24:36;;;;;;;14.20;3.92;;;9.10;99.90;;;;;;5053515;28;20032;-69
2022/08/28 04:27:02;;;;;;;21.33;4.50;;;9.10;99.90;;;;;;5053334;28;20068;-69
2022/08/28 04:29:30;;;;;;;28.40;7.60;;;9.20;99.90;;;;;;5053399;28;20029;-69
2022/08/28 04:31:56;;;;;;;24.67;5.65;;;9.50;99.90;;;;;;5053120;28;20108;-70
2022/08/28 04:34:23;;;;;;;13.55;4.25;;;9.60;99.90;;;;;;5053127;28;20445;-70
2022/08/28 04:36:52;;;;;;;16.25;4.78;;;9.60;99.90;;;;;;5053184;28;20029;-69
2022/08/28 04:39:18;;;;;;;17.25;4.30;;;9.60;99.90;;;;;;5053250;28;20109;-70
2022/08/28 04:41:43;;;;;;;20.17;4.53;;;9.60;99.90;;;;;;5053276;28;20052;-69
2022/08/28 04:44:09;;;;;;;18.60;5.35;;;9.70;99.90;;;;;;5053407;28;20442;-69
2022/08/28 04:46:35;;;;;;;15.38;4.38;;;9.80;99.90;;;;;;5053108;28;20053;-69
2022/08/28 04:49:03;;;;;;;13.50;3.95;;;9.90;99.90;;;;;;5053732;28;20442;-69
2022/08/28 04:51:29;;;;;;;29.35;5.05;;;9.90;99.90;;;;;;5055582;28;20430;-69
2022/08/28 04:53:56;;;;;;;26.48;5.57;;;10.00;99.90;;;;;;5057440;28;20025;-69
2022/08/28 04:56:22;;;;;;;20.20;5.43;;;10.20;99.90;;;;;;5057206;28;20059;-69
2022/08/28 04:58:48;;;;;;;23.38;5.30;;;10.30;99.90;;;;;;5057422;28;20021;-70
2022/08/28 05:01:19;;;;;;;18.27;4.60;;;10.40;99.90;;;;;;5057105;28;20028;-70
2022/08/28 05:03:46;;;;;;;20.40;5.28;;;10.50;99.90;;;;;;5056973;28;20032;-70
2022/08/28 05:06:14;;;;;;;26.45;5.45;;;10.70;99.90;;;;;;5056926;28;20024;-70
2022/08/28 05:08:39;;;;;;;33.28;5.20;;;10.90;99.90;;;;;;5057001;28;20025;-70
2022/08/28 05:11:14;;;;;;;29.73;7.30;;;11.10;99.90;;;;;;5057065;28;20098;-70
2022/08/28 05:13:40;;;;;;;25.70;6.28;;;11.30;99.90;;;;;;5057394;28;20090;-70
2022/08/28 05:16:06;;;;;;;34.00;6.20;;;11.40;99.90;;;;;;5056968;28;20032;-70
2022/08/28 05:18:31;;;;;;;34.13;7.18;;;11.60;99.90;;;;;;5056947;28;20021;-70
2022/08/28 05:20:57;;;;;;;27.08;5.45;;;11.80;99.90;;;;;;5056689;28;20025;-70
2022/08/28 05:23:23;;;;;;;24.92;5.22;;;12.00;99.90;;;;;;5057252;28;20021;-70
2022/08/28 05:25:49;;;;;;;24.13;5.93;;;12.10;99.90;;;;;;5056601;28;20040;-70
2022/08/28 05:28:16;;;;;;;51.78;6.82;;;12.10;99.90;;;;;;5056552;28;20032;-70
2022/08/28 05:30:43;;;;;;;21.13;6.20;;;12.30;99.90;;;;;;5056816;28;20384;-70
2022/08/28 05:33:12;;;;;;;26.45;5.78;;;12.50;99.90;;;;;;5056345;28;20025;-70
2022/08/28 05:35:40;;;;;;;34.33;5.63;;;12.70;99.90;;;;;;5056276;28;20017;-70
2022/08/28 05:38:06;;;;;;;25.40;6.28;;;12.90;99.90;;;;;;5056398;28;20025;-70
2022/08/28 05:40:32;;;;;;;23.63;5.90;;;13.10;99.90;;;;;;5056259;28;20036;-70
2022/08/28 05:42:58;;;;;;;34.90;6.50;;;13.30;99.90;;;;;;5056528;28;20096;-70
2022/08/28 05:45:24;;;;;;;29.50;6.20;;;13.40;99.90;;;;;;5056276;28;20068;-70
2022/08/28 05:47:50;;;;;;;34.03;5.88;;;13.40;99.90;;;;;;5056013;28;20032;-70
2022/08/28 05:50:16;;;;;;;21.38;5.07;;;13.50;99.90;;;;;;5056266;28;20028;-70
2022/08/28 05:52:42;;;;;;;27.27;6.13;;;13.60;99.90;;;;;;5055934;28;20017;-70
2022/08/28 05:55:10;;;;;;;34.75;5.75;;;13.60;99.90;;;;;;5056055;28;20465;-70
2022/08/28 05:57:37;;;;;;;39.58;6.70;;;13.80;99.90;;;;;;5055891;28;20435;-70
2022/08/28 06:00:04;;;;;;;25.27;6.38;;;13.80;99.90;;;;;;5056036;28;20108;-70
2022/08/28 06:02:30;;;;;;;17.90;4.55;;;13.90;99.90;;;;;;5054989;28;20021;-70
2022/08/28 06:04:56;;;;;;;25.65;6.47;;;13.90;99.90;;;;;;5055848;28;20021;-70
2022/08/28 06:07:22;;;;;;;31.90;5.82;;;14.20;99.90;;;;;;5056029;28;20059;-70
2022/08/28 06:09:48;;;;;;;33.60;5.72;;;14.40;99.90;;;;;;5056294;28;20033;-70
2022/08/28 06:12:14;;;;;;;32.55;5.13;;;14.80;99.90;;;;;;5055767;28;20067;-70
2022/08/28 06:14:40;;;;;;;25.08;5.60;;;15.00;99.90;;;;;;5055751;28;20103;-70
2022/08/28 06:17:05;;;;;;;22.60;6.13;;;15.20;99.90;;;;;;5055627;28;20453;-70
2022/08/28 06:19:33;;;;;;;21.40;4.97;;;15.30;99.90;;;;;;5055717;28;20040;-70
2022/08/28 06:22:01;;;;;;;19.92;5.57;;;15.60;99.90;;;;;;5055592;28;20020;-70
2022/08/28 06:24:28;;;;;;;36.55;5.57;;;15.60;99.90;;;;;;5055591;28;20366;-70
2022/08/28 06:26:55;;;;;;;21.45;5.82;;;15.80;99.90;;;;;;5055397;28;20021;-70
2022/08/28 06:29:21;;;;;;;19.25;5.05;;;15.90;99.90;;;;;;5055513;28;20100;-69
2022/08/28 06:31:51;;;;;;;21.13;4.40;;;16.00;99.90;;;;;;5055274;28;20381;-70
2022/08/28 06:34:17;;;;;;;27.00;5.70;;;16.10;99.90;;;;;;5055739;28;20032;-70
2022/08/28 06:36:43;;;;;;;19.98;5.47;;;16.30;99.90;;;;;;5055206;28;20036;-69
2022/08/28 06:39:11;;;;;;;25.20;5.28;;;16.40;99.90;;;;;;5055236;28;20024;-70
2022/08/28 06:41:41;;;;;;;22.27;4.40;;;16.40;99.90;;;;;;5055236;28;20021;-70
2022/08/28 06:44:12;;;;;;;20.85;6.45;;;16.60;99.90;;;;;;5055439;28;20539;-70
2022/08/28 06:46:38;;;;;;;28.90;6.35;;;16.70;99.90;;;;;;5055272;28;20029;-70
2022/08/28 06:49:06;;;;;;;17.40;5.53;;;16.80;99.90;;;;;;5055378;28;20104;-70
2022/08/28 06:51:32;;;;;;;19.58;5.05;;;17.20;99.90;;;;;;5055340;28;20033;-69
2022/08/28 06:53:58;;;;;;;27.05;7.32;;;17.50;99.90;;;;;;5054927;28;20020;-70
2022/08/28 06:56:23;;;;;;;21.33;5.60;;;17.80;99.90;;;;;;5054785;28;20032;-69
2022/08/28 06:58:49;;;;;;;27.67;7.05;;;17.70;99.90;;;;;;5055002;28;20017;-69
2022/08/28 07:01:24;;;;;;;27.10;6.05;;;17.70;99.90;;;;;;5054869;28;20057;-69
2022/08/28 07:03:52;;;;;;;29.48;5.95;;;17.40;99.90;;;;;;5055017;28;20017;-69
2022/08/28 07:06:20;;;;;;;32.13;6.65;;;17.30;99.90;;;;;;5054832;28;20017;-69
2022/08/28 07:08:46;;;;;;;21.38;5.88;;;17.40;99.90;;;;;;5054631;28;20032;-69
2022/08/28 07:11:17;;;;;;;30.17;6.18;;;17.30;99.90;;;;;;5053309;28;20025;-70
2022/08/28 07:13:44;;;;;;;20.55;5.63;;;17.30;99.90;;;;;;5054819;28;20024;-69
2022/08/28 07:16:16;;;;;;;27.52;6.43;;;17.10;99.90;;;;;;5054660;28;20122;-70
2022/08/28 07:18:44;;;;;;;26.27;5.95;;;17.10;99.90;;;;;;5055227;28;20133;-70
2022/08/28 07:21:10;;;;;;;27.00;6.03;;;17.10;99.90;;;;;;5054383;28;20453;-70
2022/08/28 07:23:36;;;;;;;33.50;6.68;;;17.00;99.90;;;;;;5054280;28;20100;-70
2022/08/28 07:26:05;;;;;;;23.98;4.97;;;16.90;99.90;;;;;;5054437;28;20033;-70
2022/08/28 07:28:32;;;;;;;25.58;6.60;;;16.90;99.90;;;;;;5054256;28;20033;-70
2022/08/28 07:31:04;;;;;;;27.17;5.80;;;17.20;99.90;;;;;;5054250;28;20029;-70
2022/08/28 07:33:30;;;;;;;19.98;5.82;;;17.60;99.90;;;;;;5054387;28;20103;-70
2022/08/28 07:35:57;;;;;;;16.33;4.68;;;17.90;99.90;;;;;;5054059;28;20447;-70
2022/08/28 07:38:24;;;;;;;24.10;5.80;;;18.10;99.90;;;;;;5054329;28;20021;-70
2022/08/28 07:40:50;;;;;;;16.58;4.13;;;18.20;99.90;;;;;;5054373;28;20045;-70
2022/08/28 07:46:05;;;;;;;25.90;6.43;;;18.10;99.90;;;;;;5054343;28;20534;-68
2022/08/28 07:48:32;;;;;;;18.35;4.65;;;18.00;99.90;;;;;;5054014;28;20029;-69
2022/08/28 07:50:57;;;;;;;22.02;5.22;;;18.20;99.90;;;;;;5053979;28;20021;-70
2022/08/28 07:53:23;;;;;;;17.63;4.40;;;18.40;99.90;;;;;;5054415;28;20035;-70
2022/08/28 07:55:50;;;;;;;35.75;4.97;;;18.60;99.90;;;;;;5052786;28;20108;-70
2022/08/28 07:58:16;;;;;;;19.13;6.00;;;18.80;99.90;;;;;;5054046;28;20029;-69
2022/08/28 08:00:42;;;;;;;36.85;4.95;;;19.20;99.90;;;;;;5053783;28;20488;-69
2022/08/28 08:03:07;;;;;;;23.73;5.03;;;19.50;99.90;;;;;;5053673;28;20029;-69
2022/08/28 08:05:33;;;;;;;19.65;5.15;;;19.70;99.90;;;;;;5053359;28;20412;-69
2022/08/28 08:07:58;;;;;;;17.80;5.38;;;19.70;99.90;;;;;;5053486;28;20040;-69
2022/08/28 08:10:24;;;;;;;25.83;6.07;;;19.30;99.90;;;;;;5053613;28;20512;-69
2022/08/28 08:12:51;;;;;;;24.50;5.72;;;18.80;99.90;;;;;;5053557;28;20392;-69
2022/08/28 08:15:16;;;;;;;16.50;5.05;;;18.80;99.90;;;;;;5053419;28;20013;-69
2022/08/28 08:17:42;;;;;;;22.45;5.88;;;19.20;99.90;;;;;;5053589;28;20040;-69
2022/08/28 08:20:08;;;;;;;24.13;5.53;;;19.60;99.90;;;;;;5053410;28;20025;-69
2022/08/28 08:22:34;;;;;;;26.42;6.25;;;19.70;99.90;;;;;;5053398;28;20533;-69
2022/08/28 08:25:03;;;;;;;24.08;5.43;;;19.60;99.90;;;;;;5052960;28;20032;-69
2022/08/28 08:27:29;;;;;;;20.02;4.20;;;19.50;99.90;;;;;;5053344;28;20025;-69
2022/08/28 08:29:54;;;;;;;17.05;4.80;;;19.30;99.90;;;;;;5053214;28;20024;-69
2022/08/28 08:32:20;;;;;;;29.88;6.13;;;19.20;99.90;;;;;;5053339;28;20025;-69
2022/08/28 08:34:45;;;;;;;23.15;4.40;;;19.00;99.90;;;;;;5053253;28;20049;-69
2022/08/28 08:37:12;;;;;;;24.13;4.85;;;19.20;99.90;;;;;;5053081;28;20473;-69
2022/08/28 08:39:38;;;;;;;18.35;4.72;;;19.10;99.90;;;;;;5053128;28;20017;-70
2022/08/28 08:42:17;;;;;;;25.40;5.50;;;19.30;99.90;;;;;;5053269;28;20025;-69
2022/08/28 08:44:46;;;;;;;21.67;4.47;;;19.60;99.90;;;;;;5053458;28;20045;-69
2022/08/28 08:47:18;;;;;;;26.27;5.15;;;20.00;99.90;;;;;;5053218;28;20402;-69
2022/08/28 08:49:56;;;;;;;16.58;5.13;;;20.20;99.90;;;;;;5053152;28;20036;-69
2022/08/28 08:53:01;;;;;;;20.08;4.55;;;20.40;99.90;;;;;;5053150;28;20048;-69
2022/08/28 08:55:27;;;;;;;33.45;5.97;;;20.40;99.90;;;;;;5048942;28;20397;-70
2022/08/28 08:57:58;;;;;;;21.88;5.05;;;20.20;99.90;;;;;;5052935;28;20036;-69
2022/08/28 09:00:25;;;;;;;30.17;5.82;;;19.80;99.90;;;;;;5053328;28;20041;-69
2022/08/28 09:03:08;;;;;;;22.30;5.25;;;19.90;99.90;;;;;;5053057;28;20500;-69
2022/08/28 09:05:46;;;;;;;17.80;4.75;;;20.30;99.90;;;;;;5053081;28;20071;-69
2022/08/28 09:08:24;;;;;;;19.13;4.47;;;20.60;99.90;;;;;;5053305;28;20496;-69
2022/08/28 09:11:16;;;;;;;27.33;5.57;;;20.70;99.90;;;;;;5053259;28;20021;-69
2022/08/28 09:13:56;;;;;;;27.08;6.50;;;20.50;99.90;;;;;;5052111;28;20029;-69
2022/08/28 09:16:28;;;;;;;23.95;5.05;;;20.70;99.90;;;;;;5052620;28;20025;-69
2022/08/28 09:18:56;;;;;;;25.95;4.95;;;21.30;99.90;;;;;;5053127;28;20018;-69
2022/08/28 09:21:28;;;;;;;19.42;4.93;;;21.00;99.90;;;;;;5052749;28;20033;-69
2022/08/28 09:23:53;;;;;;;18.98;4.85;;;20.60;99.90;;;;;;5052952;28;20043;-69
2022/08/28 09:26:23;;;;;;;24.15;5.97;;;20.20;99.90;;;;;;5053052;28;20025;-69
2022/08/28 09:29:17;;;;;;;20.33;5.70;;;20.10;99.90;;;;;;5052785;28;20476;-69
2022/08/28 09:31:43;;;;;;;26.27;4.88;;;20.60;99.90;;;;;;5053430;28;20100;-69
2022/08/28 09:34:22;;;;;;;18.15;5.18;;;20.70;99.90;;;;;;5052648;28;20063;-69
2022/08/28 09:36:48;;;;;;;26.50;5.75;;;20.50;99.90;;;;;;5054386;28;20032;-69
2022/08/28 09:39:23;;;;;;;29.70;5.68;;;20.40;99.90;;;;;;5056824;28;20100;-69
2022/08/28 09:44:57;;;;;;;21.90;4.72;;;20.30;99.90;;;;;;5056587;28;20059;-69
2022/08/28 09:47:40;;;;;;;22.50;5.68;;;20.50;99.90;;;;;;5056150;28;20043;-69
2022/08/28 09:50:34;;;;;;;24.93;5.20;;;20.50;99.90;;;;;;5056086;28;20477;-69
2022/08/28 09:53:10;;;;;;;21.52;4.80;;;20.90;99.90;;;;;;5056062;28;20027;-69
2022/08/28 09:56:01;;;;;;;21.40;5.00;;;21.10;99.90;;;;;;5055840;28;20078;-69
2022/08/28 09:58:53;;;;;;;23.45;5.18;;;21.60;99.90;;;;;;5055558;28;20479;-69
2022/08/28 10:01:37;;;;;;;26.88;4.85;;;21.00;99.90;;;;;;5056333;28;20025;-69
2022/08/28 10:04:30;;;;;;;25.45;7.40;;;20.70;99.90;;;;;;5056089;28;20057;-69
2022/08/28 10:07:25;;;;;;;18.42;5.80;;;21.10;99.90;;;;;;5055807;28;20075;-69
2022/08/28 10:10:12;;;;;;;16.38;5.82;;;21.00;99.90;;;;;;5055815;28;20440;-69
2022/08/28 10:12:59;;;;;;;21.13;5.82;;;20.90;99.90;;;;;;5054516;28;20016;-69
2022/08/28 10:15:51;;;;;;;16.25;5.25;;;20.50;99.90;;;;;;5055693;28;20104;-69
2022/08/28 10:18:45;;;;;;;25.38;6.70;;;20.20;99.90;;;;;;5055986;28;20116;-69
2022/08/28 10:21:20;;;;;;;19.75;5.10;;;20.10;99.90;;;;;;5055710;28;20036;-69
2022/08/28 10:24:13;;;;;;;26.65;5.63;;;20.40;99.90;;;;;;5055500;28;20096;-69
2022/08/28 10:26:44;;;;;;;30.50;6.63;;;21.20;99.90;;;;;;5055218;28;20028;-69
2022/08/28 10:29:21;;;;;;;20.30;5.18;;;21.70;99.90;;;;;;5055478;28;20346;-70
2022/08/28 10:32:11;;;;;;;25.48;5.25;;;21.80;99.90;;;;;;5055457;28;20032;-69
2022/08/28 10:34:58;;;;;;;15.45;3.95;;;21.80;99.90;;;;;;5055287;28;20032;-69
2022/08/28 10:37:57;;;;;;;29.05;5.75;;;21.10;99.90;;;;;;5055371;28;20358;-69
2022/08/28 10:40:31;;;;;;;32.25;5.97;;;20.40;99.90;;;;;;5055594;28;20052;-69
2022/08/28 10:43:18;;;;;;;21.35;5.20;;;20.00;99.90;;;;;;5055452;28;20035;-69
2022/08/28 10:45:44;;;;;;;29.50;5.18;;;20.20;99.90;;;;;;5054996;28;20053;-69
2022/08/28 10:48:16;;;;;;;38.22;5.75;;;20.70;99.90;;;;;;5054813;28;20029;-69
2022/08/28 10:50:53;;;;;;;22.23;5.90;;;21.00;99.90;;;;;;5055086;28;20079;-69
2022/08/28 10:53:34;;;;;;;25.40;6.32;;;21.40;99.90;;;;;;5055315;28;20017;-69
2022/08/28 10:56:08;;;;;;;22.35;5.28;;;21.80;99.90;;;;;;5054919;28;20485;-69
2022/08/28 10:58:38;;;;;;;23.23;5.80;;;22.10;99.90;;;;;;5054916;28;20511;-69
2022/08/28 11:01:08;;;;;;;26.25;5.78;;;22.00;99.90;;;;;;5054913;28;20024;-70
2022/08/28 11:03:45;;;;;;;23.80;5.20;;;21.80;99.90;;;;;;5055214;28;20041;-69
2022/08/28 11:06:42;;;;;;;19.20;4.65;;;21.20;99.90;;;;;;5055213;28;20385;-69
2022/08/28 11:09:25;;;;;;;21.95;5.10;;;20.90;99.90;;;;;;5055318;28;20458;-69
2022/08/28 11:11:55;;;;;;;;;;;20.40;99.90;;;;;;5055208;28;20033;-69
2022/08/28 11:14:33;;;;;;;24.73;5.40;;;20.20;99.90;;;;;;5054788;28;19905;-69
2022/08/28 11:17:26;;;;;;;25.98;5.35;;;20.40;99.90;;;;;;5054740;28;20029;-69
2022/08/28 11:19:54;;;;;;;30.08;4.60;;;21.00;99.90;;;;;;5047548;28;20060;-69
2022/08/28 11:22:24;;;;;;;19.65;5.18;;;21.50;99.90;;;;;;5054472;28;20070;-69
2022/08/28 11:25:12;;;;;;;29.00;4.78;;;21.30;99.90;;;;;;5054924;28;20104;-69
2022/08/28 11:27:39;;;;;;;23.90;4.65;;;21.70;99.90;;;;;;5054077;28;20029;-70
2022/08/28 11:30:30;;;;;;;19.63;5.22;;;22.40;99.90;;;;;;5054301;28;20429;-69
2022/08/28 11:32:59;;;;;;;21.50;5.03;;;23.00;99.90;;;;;;5054238;28;20025;-69
2022/08/28 11:35:47;;;;;;;25.35;5.18;;;22.70;99.90;;;;;;5054167;28;20396;-69
2022/08/28 11:38:58;;;;;;;21.27;5.05;;;22.20;99.90;;;;;;5054294;28;20021;-69
2022/08/28 11:41:26;;;;;;;21.13;4.63;;;22.00;99.90;;;;;;5033872;28;20026;-69
2022/08/28 11:44:12;;;;;;;23.40;4.57;;;22.80;99.90;;;;;;5034094;28;20017;-69
2022/08/28 11:46:43;;;;;;;26.35;5.10;;;23.20;99.90;;;;;;5033950;28;20171;-69
2022/08/28 11:49:31;;;;;;;14.50;4.43;;;23.30;99.90;;;;;;5034311;28;20025;-69
2022/08/28 11:52:17;;;;;;;18.45;4.55;;;23.20;99.90;;;;;;5033936;28;20029;-69
2022/08/28 11:55:28;;;;;;;18.08;3.90;;;23.30;99.90;;;;;;5034109;28;20485;-69
2022/08/28 11:58:17;;;;;;;13.05;4.35;;;24.00;99.90;;;;;;5033674;28;20042;-69
2022/08/28 12:00:51;;;;;;;24.50;4.70;;;23.50;99.90;;;;;;5033865;28;20017;-69
2022/08/28 12:03:37;;;;;;;19.00;4.53;;;23.00;99.90;;;;;;5034281;28;20024;-71
2022/08/28 12:06:04;;;;;;;22.52;5.10;;;22.20;99.90;;;;;;5053547;28;20381;-69
2022/08/28 12:09:01;;;;;;;26.60;5.78;;;21.70;99.90;;;;;;5052341;28;20090;-70
2022/08/28 12:11:39;;;;;;;23.30;4.60;;;21.30;99.90;;;;;;5054173;28;20027;-69
2022/08/28 12:14:27;;;;;;;19.25;4.60;;;21.00;99.90;;;;;;5053595;28;20053;-69
2022/08/28 12:17:02;;;;;;;25.90;5.30;;;21.00;99.90;;;;;;5053213;28;20029;-69
2022/08/28 12:20:07;;;;;;;17.60;5.47;;;21.00;99.90;;;;;;5053507;28;20026;-69
2022/08/28 12:22:48;;;;;;;18.42;4.63;;;21.00;99.90;;;;;;5033493;28;20018;-69
2022/08/28 12:25:36;;;;;;;27.20;4.63;;;20.90;99.90;;;;;;5033962;28;20020;-70
2022/08/28 12:28:24;;;;;;;27.65;5.65;;;20.70;99.90;;;;;;5034068;28;20079;-71
2022/08/28 12:32:09;;;;;;;27.17;4.78;;;20.60;99.90;;;;;;5047921;28;20025;-71
2022/08/28 12:34:33;;;;;;;27.83;5.55;;;20.30;99.90;;;;;;5053241;28;20104;-71
2022/08/28 12:37:01;;;;;;;25.75;4.55;;;20.20;99.90;;;;;;5047588;28;20033;-70
2022/08/28 12:39:30;;;;;;;30.27;6.43;;;20.10;99.90;;;;;;5053332;28;20100;-70
2022/08/28 12:41:57;;;;;;;28.83;5.55;;;19.90;99.90;;;;;;5053310;28;20013;-70
2022/08/28 12:44:27;;;;;;;28.70;6.15;;;19.80;99.90;;;;;;5053202;28;20025;-71
2022/08/28 12:46:53;;;;;;;16.92;4.55;;;19.90;99.90;;;;;;5053221;28;20021;-71
2022/08/28 12:49:45;;;;;;;21.13;5.10;;;19.70;99.90;;;;;;5053372;28;20172;-71
2022/08/28 12:52:14;;;;;;;28.38;4.43;;;19.80;99.90;;;;;;5052317;28;20435;-71
2022/08/28 12:54:40;;;;;;;25.85;4.55;;;20.00;99.90;;;;;;5053296;28;20017;-71
2022/08/28 12:57:11;;;;;;;41.10;5.20;;;21.00;99.90;;;;;;5052848;28;20117;-70
2022/08/28 12:59:38;;;;;;;24.65;5.03;;;21.50;99.90;;;;;;5054353;28;20070;-71
2022/08/28 13:02:11;;;;;;;29.10;4.68;;;21.80;99.90;;;;;;5053464;28;20021;-71
2022/08/28 13:04:40;;;;;;;26.83;5.43;;;21.80;99.90;;;;;;5053101;28;20024;-71
2022/08/28 13:07:13;;;;;;;19.70;4.85;;;21.60;99.90;;;;;;5053049;28;20029;-70